Time;durP1;ratioP1;P1;durP2;ratioP2;P2;SDS_P1;SDS_P2;PMS_P1;PMS_P2;Temp;Humidity;BMP_temperature;BMP_pressure;BME280_temperature;BME280_humidity;BME280_pressure;Samples;Min_cycle;Max_cycle;Signal;HPM_P1;HPM_P2
2021/01/27 00:00:30;;;;;;;8.43;3.55;;;;;;;2.57;56.32;99774.41;1739712;80;22414;-56
2021/01/27 00:02:59;;;;;;;7.28;3.62;;;;;;;2.57;56.52;99783.50;1716377;81;21224;-57
2021/01/27 00:05:36;;;;;;;8.33;2.58;;;;;;;2.54;55.89;99776.73;1656128;83;21213;-58
2021/01/27 00:08:05;;;;;;;8.58;4.50;;;;;;;2.51;55.97;99786.47;1668949;83;21276;-57
2021/01/27 00:10:34;;;;;;;9.25;3.90;;;;;;;2.45;56.26;99777.23;1718649;81;21197;-57
2021/01/27 00:13:03;;;;;;;9.05;3.67;;;;;;;2.46;56.38;99781.99;1714505;81;22069;-58
2021/01/27 00:15:36;;;;;;;7.80;3.65;;;;;;;2.47;56.15;99784.51;1699999;81;21199;-56
2021/01/27 00:18:06;;;;;;;7.28;3.80;;;;;;;2.46;56.25;99790.61;1692489;82;21256;-56
2021/01/27 00:20:33;;;;;;;7.05;3.47;;;;;;;2.47;56.09;99787.55;1695706;82;21565;-56
2021/01/27 00:23:01;;;;;;;6.92;3.52;;;;;;;2.43;56.19;99789.48;1672656;82;21681;-56
2021/01/27 00:25:31;;;;;;;7.72;3.10;;;;;;;2.46;56.25;99791.91;1692135;82;21398;-56
2021/01/27 00:27:59;;;;;;;9.28;4.20;;;;;;;2.44;56.25;99787.71;1692565;82;21260;-56
2021/01/27 00:30:33;;;;;;;8.40;3.60;;;;;;;2.44;56.14;99788.56;1691611;82;21203;-57
2021/01/27 00:33:01;;;;;;;8.55;4.42;;;;;;;2.44;56.21;99781.22;1690246;82;21264;-57
2021/01/27 00:35:33;;;;;;;6.60;3.17;;;;;;;2.42;56.25;99781.30;1691009;82;21228;-57
2021/01/27 00:38:14;;;;;;;11.28;5.00;;;;;;;2.38;56.22;99779.34;1690283;82;22378;-57
2021/01/27 00:40:42;;;;;;;8.40;4.35;;;;;;;2.37;56.12;99777.69;1690119;82;21205;-58
2021/01/27 00:43:10;;;;;;;6.80;3.47;;;;;;;2.34;55.66;99772.66;1690366;82;21270;-58
2021/01/27 00:45:37;;;;;;;7.40;3.55;;;;;;;2.31;55.42;99769.41;1671261;82;21247;-57
2021/01/27 00:48:06;;;;;;;6.03;3.05;;;;;;;2.27;55.71;99755.76;1690145;82;21842;-57
2021/01/27 00:50:35;;;;;;;7.30;4.00;;;;;;;2.26;55.75;99757.97;1663045;82;21247;-57
2021/01/27 00:53:03;;;;;;;6.55;3.22;;;;;;;2.24;55.85;99744.24;1688542;82;21179;-57
2021/01/27 00:55:31;;;;;;;9.10;4.80;;;;;;;2.21;55.68;99737.92;1691735;82;21244;-57
2021/01/27 00:58:00;;;;;;;7.08;3.02;;;;;;;2.15;55.63;99746.03;1690114;82;21228;-57
2021/01/27 01:00:35;;;;;;;8.45;3.95;;;;;;;2.11;55.92;99745.84;1675630;82;21218;-57
2021/01/27 01:03:05;;;;;;;6.80;3.47;;;;;;;2.09;56.05;99751.59;1729881;80;22288;-57
2021/01/27 01:05:35;;;;;;;9.08;4.47;;;;;;;2.06;56.28;99744.79;1710603;80;21179;-57
2021/01/27 01:08:05;;;;;;;7.03;3.60;;;;;;;2.11;56.40;99748.44;1737717;80;21184;-57
2021/01/27 01:10:42;;;;;;;8.28;3.90;;;;;;;2.09;56.50;99746.39;1708975;80;21207;-57
2021/01/27 01:13:14;;;;;;;7.83;3.35;;;;;;;2.13;56.68;99753.08;1740981;80;21187;-57
2021/01/27 01:15:41;;;;;;;9.78;4.65;;;;;;;2.15;56.70;99755.98;1721325;80;21201;-57
2021/01/27 01:18:11;;;;;;;6.95;3.67;;;;;;;2.12;56.87;99756.58;1719126;80;21181;-56
2021/01/27 01:20:40;;;;;;;9.38;4.35;;;;;;;2.10;56.77;99750.20;1713399;80;21204;-57
2021/01/27 01:23:08;;;;;;;6.62;3.55;;;;;;;2.07;56.81;99746.91;1713635;80;21181;-57
2021/01/27 01:25:36;;;;;;;6.80;3.50;;;;;;;2.03;56.85;99752.30;1738065;80;21211;-57
2021/01/27 01:40:52;;;;;;;9.60;4.62;;;;;;;3.34;54.09;99729.66;1858273;75;22522;-57
2021/01/27 01:43:35;;;;;;;9.45;4.25;;;;;;;3.44;53.69;99727.33;1737095;80;21209;-57
2021/01/27 01:46:16;;;;;;;11.00;4.30;;;;;;;3.32;53.80;99727.61;1766620;80;21297;-57
2021/01/27 01:48:51;;;;;;;8.48;3.92;;;;;;;3.15;53.98;99717.76;1727637;80;21220;-56
2021/01/27 01:51:43;;;;;;;10.08;4.97;;;;;;;3.01;54.33;99717.77;1764854;79;21765;-57
2021/01/27 01:54:44;;;;;;;8.60;3.92;;;;;;;2.87;54.88;99707.33;1869762;74;21987;-57
2021/01/27 01:57:20;;;;;;;8.10;4.47;;;;;;;2.76;55.09;99723.09;1802677;75;21841;-57
2021/01/27 01:59:55;;;;;;;;;;;;;;;2.67;55.37;99710.62;1761289;78;21239;-57
2021/01/27 02:02:22;;;;;;;10.50;4.53;;;;;;;2.65;55.51;99715.08;1751979;78;20312;-57
2021/01/27 02:04:53;;;;;;;7.87;4.00;;;;;;;2.54;55.78;99712.25;1777352;78;21139;-57
2021/01/27 02:07:22;;;;;;;7.65;3.75;;;;;;;2.47;55.84;99700.55;1774962;78;21381;-58
2021/01/27 02:09:50;;;;;;;10.43;4.47;;;;;;;2.39;56.05;99698.41;1776134;78;21494;-58
2021/01/27 02:12:43;;;;;;;10.48;4.22;;;;;;;2.34;56.22;99695.24;1772340;78;21219;-58
2021/01/27 02:15:42;;;;;;;8.18;3.77;;;;;;;2.26;56.32;99697.43;1776163;78;21052;-58
2021/01/27 02:18:40;;;;;;;9.38;4.03;;;;;;;2.18;56.51;99692.19;1774507;78;21174;-56
2021/01/27 02:21:32;;;;;;;7.90;3.95;;;;;;;2.15;56.67;99698.02;1773551;78;21156;-56
2021/01/27 02:24:47;;;;;;;12.30;4.17;;;;;;;2.15;56.71;99690.23;1748283;78;21198;-57
2021/01/27 02:27:27;;;;;;;9.33;4.45;;;;;;;2.13;56.76;99689.02;1722528;80;21364;-56
2021/01/27 02:30:33;;;;;;;10.85;4.37;;;;;;;2.13;56.84;99686.89;1875212;75;23281;-57
2021/01/27 02:33:30;;;;;;;7.62;3.58;;;;;;;2.09;56.83;99698.38;1834091;76;21447;-57
2021/01/27 02:36:19;;;;;;;7.22;3.90;;;;;;;2.05;56.91;99698.98;1816308;76;21259;-57
2021/01/27 02:39:11;;;;;;;8.05;4.53;;;;;;;2.03;56.94;99693.91;1842850;75;21216;-58
2021/01/27 02:41:56;;;;;;;8.63;4.70;;;;;;;1.96;57.11;99698.22;1840029;77;21183;-57
2021/01/27 02:44:29;;;;;;;8.85;4.08;;;;;;;1.89;57.24;99697.72;1838284;77;21136;-57
2021/01/27 02:46:56;;;;;;;8.40;4.30;;;;;;;1.85;57.44;99696.23;1844259;77;22768;-57
2021/01/27 02:49:38;;;;;;;8.15;4.08;;;;;;;1.82;57.50;99698.52;1843138;76;21194;-57
2021/01/27 02:52:15;;;;;;;7.40;3.72;;;;;;;1.80;57.60;99695.17;1837273;76;21052;-56
2021/01/27 02:54:53;;;;;;;8.25;4.03;;;;;;;1.80;57.71;99693.02;1840496;77;21163;-56
2021/01/27 02:57:36;;;;;;;8.45;4.30;;;;;;;1.80;57.75;99692.58;1823455;77;21610;-55
2021/01/27 03:00:26;;;;;;;10.50;4.40;;;;;;;1.81;57.84;99685.16;1802982;77;21117;-55
2021/01/27 03:03:05;;;;;;;7.85;3.58;;;;;;;1.86;57.84;99689.63;1841016;77;21270;-55
2021/01/27 03:05:40;;;;;;;9.18;4.40;;;;;;;1.89;57.79;99687.34;1816194;77;21223;-56
2021/01/27 03:08:17;;;;;;;8.13;3.75;;;;;;;1.86;57.74;99690.92;1839685;76;21167;-56
2021/01/27 03:11:18;;;;;;;9.80;4.47;;;;;;;1.84;57.86;99686.29;1840327;77;21190;-58
2021/01/27 03:13:46;;;;;;;12.20;4.47;;;;;;;1.84;57.96;99691.95;1816377;77;21189;-57
2021/01/27 03:16:31;;;;;;;9.80;4.85;;;;;;;1.87;57.90;99687.89;1841584;75;21205;-57
2021/01/27 03:19:22;;;;;;;7.87;3.77;;;;;;;1.89;57.89;99674.37;1874087;75;22885;-57
2021/01/27 03:21:54;;;;;;;8.18;4.22;;;;;;;1.82;57.92;99676.93;1777044;77;21183;-57
2021/01/27 03:24:22;;;;;;;8.20;4.08;;;;;;;1.81;58.01;99677.84;1835998;76;21595;-57
2021/01/27 03:26:59;;;;;;;10.13;4.60;;;;;;;1.77;58.13;99670.69;1808349;77;21157;-57
2021/01/27 03:29:50;;;;;;;10.18;5.03;;;;;;;1.82;58.19;99670.45;1794927;78;21191;-57
2021/01/27 03:32:46;;;;;;;10.65;5.70;;;;;;;1.88;58.19;99663.60;1811751;77;21188;-57
2021/01/27 03:35:32;;;;;;;12.70;6.28;;;;;;;1.95;58.13;99665.39;1836410;77;21135;-56
2021/01/27 03:38:29;;;;;;;11.65;5.58;;;;;;;1.98;58.13;99664.76;1788037;77;21233;-56
2021/01/27 03:41:14;;;;;;;8.80;4.40;;;;;;;2.00;58.06;99667.27;1835548;77;21191;-57
2021/01/27 03:44:23;;;;;;;10.20;4.62;;;;;;;1.99;58.05;99666.44;1812547;77;21705;-56
2021/01/27 03:47:09;;;;;;;10.65;4.80;;;;;;;2.00;58.07;99669.42;1837660;77;21219;-56
2021/01/27 03:49:40;;;;;;;;;;;;;;;2.02;58.13;99679.25;1840724;77;21553;-56
2021/01/27 03:52:19;;;;;;;12.05;5.80;;;;;;;2.02;58.34;99684.44;1834238;76;21187;-57
2021/01/27 03:54:50;;;;;;;8.98;4.97;;;;;;;1.94;58.55;99684.03;1835510;76;21469;-56
2021/01/27 03:57:22;;;;;;;8.90;4.92;;;;;;;1.90;58.83;99692.91;1838468;76;21180;-57
2021/01/27 03:59:49;;;;;;;10.00;5.00;;;;;;;1.91;58.97;99688.08;1811941;78;21186;-56
2021/01/27 04:02:20;;;;;;;10.88;4.60;;;;;;;1.93;59.12;99693.19;1780965;78;21203;-56
2021/01/27 04:04:49;;;;;;;8.93;4.87;;;;;;;1.95;59.19;99685.71;1811023;77;21197;-57
2021/01/27 04:07:16;;;;;;;10.75;5.80;;;;;;;1.97;59.27;99683.86;1806693;77;21215;-57
2021/01/27 04:09:44;;;;;;;8.08;4.58;;;;;;;1.99;59.21;99685.08;1830857;75;21151;-57
2021/01/27 04:12:12;;;;;;;10.00;4.15;;;;;;;1.98;59.10;99688.58;1833582;77;21171;-58
2021/01/27 04:14:40;;;;;;;10.15;5.47;;;;;;;1.94;59.08;99686.63;1811553;77;21170;-56
2021/01/27 04:17:28;;;;;;;10.98;5.12;;;;;;;1.91;59.11;99690.68;1829789;76;21455;-57
2021/01/27 04:19:57;;;;;;;8.93;4.42;;;;;;;1.89;59.15;99686.52;1800258;77;21202;-55
2021/01/27 04:22:25;;;;;;;11.08;5.30;;;;;;;1.87;59.21;99689.19;1831467;76;21185;-56
2021/01/27 04:24:52;;;;;;;10.25;4.78;;;;;;;1.82;59.38;99686.84;1799053;77;21223;-55
2021/01/27 04:27:20;;;;;;;11.43;4.85;;;;;;;1.79;59.50;99688.77;1835704;76;21175;-55
2021/01/27 04:29:47;;;;;;;10.60;4.33;;;;;;;1.77;59.60;99694.51;1798355;77;21445;-56
2021/01/27 04:32:15;;;;;;;10.63;5.05;;;;;;;1.74;59.72;99692.91;1802458;76;22292;-56
2021/01/27 04:34:45;;;;;;;9.38;4.55;;;;;;;1.73;59.90;99696.87;1806546;77;21576;-56
2021/01/27 04:37:13;;;;;;;10.43;5.08;;;;;;;1.73;60.07;99694.28;1807695;77;21242;-56
2021/01/27 04:39:40;;;;;;;8.28;5.17;;;;;;;1.72;60.16;99701.70;1838126;77;21188;-57
2021/01/27 04:42:10;;;;;;;10.18;5.50;;;;;;;1.72;60.32;99699.11;1832175;77;21339;-56
2021/01/27 04:44:37;;;;;;;8.75;4.30;;;;;;;1.77;60.49;99697.10;1834804;77;21154;-57
2021/01/27 04:47:19;;;;;;;11.43;5.08;;;;;;;1.83;60.51;99693.72;1834748;77;21162;-56
2021/01/27 04:49:52;;;;;;;10.78;5.40;;;;;;;1.85;60.46;99700.12;1780299;77;21548;-55
2021/01/27 04:52:40;;;;;;;10.58;4.50;;;;;;;1.85;60.45;99697.05;1834306;76;21948;-57
2021/01/27 04:55:49;;;;;;;9.55;5.05;;;;;;;1.83;60.12;99702.80;1807818;77;21206;-57
2021/01/27 04:58:39;;;;;;;10.80;4.92;;;;;;;1.85;59.88;99702.71;1829163;75;21378;-57
2021/01/27 05:01:34;;;;;;;11.48;5.55;;;;;;;1.84;60.24;99709.63;1813066;77;21164;-55
2021/01/27 05:04:25;;;;;;;13.13;6.85;;;;;;;1.86;60.40;99718.63;1781281;77;21215;-55
2021/01/27 05:06:56;;;;;;;9.88;5.53;;;;;;;1.84;60.17;99716.12;1825856;77;21156;-56
2021/01/27 05:09:48;;;;;;;11.00;5.50;;;;;;;1.80;60.46;99713.77;1794307;78;22120;-54
2021/01/27 05:12:16;;;;;;;10.15;5.83;;;;;;;1.82;60.56;99711.48;1778132;77;21228;-54
2021/01/27 05:14:47;;;;;;;8.30;5.62;;;;;;;1.83;60.52;99709.72;1801045;77;21164;-54
2021/01/27 05:17:18;;;;;;;9.50;5.55;;;;;;;1.85;60.33;99718.28;1792756;78;21169;-54
2021/01/27 05:19:49;;;;;;;12.23;6.45;;;;;;;1.84;60.32;99724.38;1806196;77;21562;-54
2021/01/27 05:22:16;;;;;;;12.73;6.92;;;;;;;1.86;60.30;99727.24;1811637;76;21214;-55
2021/01/27 05:24:44;;;;;;;18.23;9.35;;;;;;;1.86;60.37;99722.52;1843181;76;21155;-54
2021/01/27 05:27:26;;;;;;;16.67;8.45;;;;;;;1.87;60.37;99728.10;1782645;77;21481;-54
2021/01/27 05:30:10;;;;;;;14.07;8.25;;;;;;;1.82;60.54;99720.56;1794324;78;22855;-53
2021/01/27 05:32:54;;;;;;;16.10;8.95;;;;;;;1.75;60.62;99725.72;1692723;81;21188;-55
2021/01/27 05:35:34;;;;;;;24.75;13.38;;;;;;;1.70;60.72;99733.34;1688463;82;22479;-55
2021/01/27 05:38:25;;;;;;;22.27;13.22;;;;;;;1.69;60.87;99730.39;1722081;81;21044;-55
2021/01/27 05:41:24;;;;;;;33.83;19.00;;;;;;;1.74;61.00;99738.30;1856121;74;27927;-55
2021/01/27 05:44:09;;;;;;;24.75;12.50;;;;;;;1.90;60.68;99737.02;1838728;76;21171;-55
2021/01/27 05:46:37;;;;;;;26.87;13.15;;;;;;;2.12;60.06;99735.38;1840789;75;22184;-56
2021/01/27 05:49:09;;;;;;;21.75;11.75;;;;;;;2.06;60.04;99729.69;1841068;75;21162;-55
2021/01/27 05:51:38;;;;;;;24.35;13.10;;;;;;;2.00;60.10;99732.14;1745185;80;21194;-55
2021/01/27 05:54:25;;;;;;;26.55;11.33;;;;;;;1.94;60.23;99729.44;1766800;78;21207;-56
2021/01/27 05:56:53;;;;;;;18.95;10.30;;;;;;;1.90;60.46;99727.94;1756935;79;21211;-58
2021/01/27 05:59:25;;;;;;;17.70;9.55;;;;;;;1.89;60.95;99730.62;1784523;78;21218;-56
2021/01/27 06:02:04;;;;;;;17.27;9.88;;;;;;;1.89;61.25;99730.15;1753077;79;21257;-56
2021/01/27 06:04:34;;;;;;;19.75;9.95;;;;;;;1.90;61.50;99731.83;1751911;78;21243;-55
2021/01/27 06:07:08;;;;;;;16.48;9.70;;;;;;;1.90;61.49;99733.57;1778919;78;22533;-55
2021/01/27 06:09:44;;;;;;;16.05;9.88;;;;;;;1.86;61.44;99738.92;1774975;78;21221;-55
2021/01/27 06:12:23;;;;;;;28.90;13.00;;;;;;;1.84;61.63;99743.36;1777596;78;21437;-56
2021/01/27 06:15:08;;;;;;;22.15;11.53;;;;;;;1.85;61.64;99752.00;1780621;78;21225;-56
2021/01/27 06:17:47;;;;;;;14.30;10.28;;;;;;;1.88;61.62;99748.39;1801595;77;21186;-55
2021/01/27 06:20:31;;;;;;;19.92;10.43;;;;;;;1.86;61.64;99750.59;1770228;78;21204;-54
2021/01/27 06:23:19;;;;;;;15.85;9.15;;;;;;;1.84;61.45;99747.25;1745372;79;21629;-55
2021/01/27 06:26:18;;;;;;;19.12;10.90;;;;;;;1.81;61.46;99747.88;1747072;78;21229;-56
2021/01/27 06:29:29;;;;;;;19.98;11.43;;;;;;;1.77;61.47;99744.63;1775351;78;21226;-56
2021/01/27 06:32:33;;;;;;;20.08;11.43;;;;;;;1.72;61.66;99751.81;1773312;78;21244;-56
2021/01/27 06:35:28;;;;;;;16.48;11.00;;;;;;;1.71;61.87;99757.08;1749515;79;23235;-56
2021/01/27 06:38:31;;;;;;;22.07;11.50;;;;;;;1.65;61.98;99757.78;1722979;82;21474;-56
2021/01/27 06:41:30;;;;;;;18.55;10.08;;;;;;;1.67;62.22;99753.34;1720887;82;21380;-55
2021/01/27 06:44:30;;;;;;;19.20;9.98;;;;;;;1.73;62.16;99754.80;1699838;82;21191;-55
2021/01/27 06:47:17;;;;;;;18.15;10.10;;;;;;;1.76;62.10;99752.48;1725350;81;21133;-55
2021/01/27 06:50:24;;;;;;;24.15;11.68;;;;;;;1.77;62.15;99756.30;1695432;82;21154;-55
2021/01/27 06:53:15;;;;;;;19.33;10.07;;;;;;;1.81;62.19;99755.66;1722919;81;21551;-62
2021/01/27 06:55:54;;;;;;;12.47;6.70;;;;;;;1.83;62.16;99742.14;1722234;82;21308;-60
2021/01/27 06:58:39;;;;;;;17.20;7.42;;;;;;;1.87;62.05;99733.30;1722550;82;21830;-59
2021/01/27 07:01:27;;;;;;;14.53;7.33;;;;;;;1.87;62.05;99731.99;1723459;80;21228;-58
2021/01/27 07:04:10;;;;;;;15.35;7.37;;;;;;;1.90;61.96;99725.78;1722374;81;21228;-62
2021/01/27 07:07:18;;;;;;;13.58;7.05;;;;;;;1.93;61.87;99730.34;1675333;82;21236;-62
2021/01/27 07:10:13;;;;;;;12.58;7.50;;;;;;;1.94;61.87;99729.44;1723029;80;21388;-61
2021/01/27 07:12:46;;;;;;;15.78;7.42;;;;;;;1.98;61.80;99724.91;1699242;82;21262;-56
2021/01/27 07:15:50;;;;;;;15.00;8.10;;;;;;;1.98;61.90;99723.14;1699450;82;21214;-57
2021/01/27 07:18:32;;;;;;;14.78;8.10;;;;;;;2.02;62.02;99733.75;1696323;82;21191;-55
2021/01/27 07:21:12;;;;;;;14.78;7.92;;;;;;;2.09;61.94;99735.55;1693454;82;21224;-56
2021/01/27 07:24:13;;;;;;;15.83;10.38;;;;;;;2.17;61.85;99732.06;1723934;82;21388;-56
2021/01/27 07:26:53;;;;;;;18.45;8.43;;;;;;;2.22;61.79;99744.33;1656594;84;21360;-56
2021/01/27 07:40:12;;;;;;;16.48;8.70;;;;;;;2.20;61.79;99728.45;1829692;75;22868;-55
2021/01/27 07:43:15;;;;;;;18.67;10.20;;;;;;;2.16;61.77;99727.78;1741155;79;22378;-56
2021/01/27 07:45:48;;;;;;;14.60;8.73;;;;;;;2.21;61.83;99724.94;1800039;77;21643;-56
2021/01/27 07:48:40;;;;;;;20.25;9.35;;;;;;;2.36;61.59;99722.77;1872934;74;22663;-56
2021/01/27 07:51:21;;;;;;;14.50;8.38;;;;;;;2.37;61.31;99725.76;1841289;76;21187;-56
2021/01/27 07:54:06;;;;;;;14.30;8.18;;;;;;;2.37;61.27;99723.16;1840621;76;21543;-56
2021/01/27 07:56:54;;;;;;;14.90;9.45;;;;;;;2.37;61.19;99721.00;1790978;74;68968;-71
2021/01/27 07:59:30;;;;;;;15.60;8.15;;;;;;;2.38;61.35;99714.43;1689858;83;21200;-72
2021/01/27 08:02:08;;;;;;;17.17;9.25;;;;;;;2.43;61.30;99725.03;1693667;83;21149;-73
2021/01/27 08:04:55;;;;;;;12.98;7.40;;;;;;;2.46;61.25;99726.16;1690759;83;21129;-67
2021/01/27 08:07:30;;;;;;;16.33;9.13;;;;;;;2.47;61.25;99723.48;1672197;83;21073;-70
2021/01/27 08:10:25;;;;;;;14.33;8.60;;;;;;;2.54;61.18;99725.23;1694272;83;21196;-71
2021/01/27 08:13:18;;;;;;;13.53;8.38;;;;;;;2.59;61.02;99731.86;1690905;83;21226;-67
2021/01/27 08:16:16;;;;;;;18.70;8.60;;;;;;;2.65;60.63;99730.66;1693684;83;21203;-67
2021/01/27 08:19:13;;;;;;;20.12;10.05;;;;;;;2.65;60.49;99729.36;1692114;83;21181;-71
2021/01/27 08:21:53;;;;;;;17.35;9.03;;;;;;;2.61;60.50;99731.77;1691876;83;22491;-70
2021/01/27 08:24:41;;;;;;;18.40;9.93;;;;;;;2.58;60.72;99725.45;1667466;83;21611;-69
2021/01/27 08:27:17;;;;;;;15.38;9.48;;;;;;;2.59;60.79;99729.27;1692007;83;21176;-71
2021/01/27 08:30:00;;;;;;;14.58;9.58;;;;;;;2.60;60.88;99727.02;1694618;83;21173;-71
2021/01/27 08:32:36;;;;;;;18.23;10.80;;;;;;;2.63;60.72;99725.20;1690671;83;21184;-71
2021/01/27 08:35:11;;;;;;;15.98;9.83;;;;;;;2.60;60.81;99732.69;1667018;83;22262;-70
2021/01/27 08:37:40;;;;;;;17.77;10.53;;;;;;;2.57;60.83;99721.17;1669947;83;22358;-71
2021/01/27 08:40:19;;;;;;;17.27;11.80;;;;;;;2.56;61.15;99715.62;1669675;83;21236;-74
2021/01/27 08:42:51;;;;;;;20.17;11.25;;;;;;;2.59;61.10;99710.25;1690386;83;21148;-71
2021/01/27 08:45:29;;;;;;;21.20;11.12;;;;;;;2.59;61.03;99712.37;1656337;83;21207;-70
2021/01/27 08:47:59;;;;;;;20.30;11.33;;;;;;;2.59;61.02;99719.34;1657376;83;21264;-72
2021/01/27 08:50:48;;;;;;;21.17;11.03;;;;;;;2.56;61.12;99713.84;1689185;83;21542;-71
2021/01/27 08:53:20;;;;;;;17.48;10.80;;;;;;;2.56;61.44;99706.53;1703232;81;21131;-68
2021/01/27 08:55:58;;;;;;;21.05;11.53;;;;;;;2.61;61.33;99710.99;1715510;82;21207;-67
2021/01/27 08:58:33;;;;;;;15.55;10.13;;;;;;;2.65;61.29;99716.84;1715862;81;21309;-68
2021/01/27 09:01:12;;;;;;;19.02;11.73;;;;;;;2.74;61.16;99720.19;1689255;82;21270;-68
2021/01/27 09:03:52;;;;;;;22.00;12.20;;;;;;;2.81;60.95;99715.48;1715463;81;21204;-68
2021/01/27 09:06:43;;;;;;;19.48;12.13;;;;;;;2.84;60.60;99714.00;1717566;82;21173;-71
2021/01/27 09:09:28;;;;;;;18.62;11.40;;;;;;;2.85;60.34;99719.59;1715267;82;21885;-73
2021/01/27 09:12:08;;;;;;;24.75;12.60;;;;;;;2.84;60.18;99709.66;1692013;83;21225;-75
2021/01/27 09:14:35;;;;;;;22.07;11.97;;;;;;;2.82;60.12;99710.66;1693005;82;21441;-71
2021/01/27 09:17:04;;;;;;;20.90;11.43;;;;;;;2.82;59.85;99718.46;1722533;82;21116;-75
2021/01/27 09:19:34;;;;;;;23.25;12.37;;;;;;;2.78;59.37;99714.73;1692872;82;21145;-68
2021/01/27 09:22:14;;;;;;;19.30;10.88;;;;;;;2.80;59.64;99717.25;1693347;82;21203;-71
2021/01/27 09:35:32;;;;;;;18.45;11.25;;;;;;;2.66;59.13;99712.86;1868533;75;22352;-55
2021/01/27 09:38:17;;;;;;;16.32;10.88;;;;;;;2.62;58.65;99709.22;1843016;77;21160;-55
2021/01/27 09:40:54;;;;;;;16.32;8.85;;;;;;;2.66;58.75;99718.53;1814520;77;22729;-55
2021/01/27 09:43:22;;;;;;;18.10;9.28;;;;;;;2.67;58.51;99718.41;1750092;78;21053;-54
2021/01/27 09:45:51;;;;;;;17.65;8.98;;;;;;;2.71;57.70;99722.52;1753256;78;21204;-55
2021/01/27 09:48:21;;;;;;;19.20;10.05;;;;;;;2.72;57.50;99717.71;1770834;80;21191;-55
2021/01/27 09:50:58;;;;;;;15.53;8.23;;;;;;;2.79;57.71;99715.12;1756165;79;21186;-56
2021/01/27 09:53:35;;;;;;;17.52;9.15;;;;;;;2.79;57.33;99712.97;1753735;78;21115;-55
2021/01/27 09:56:03;;;;;;;16.25;8.98;;;;;;;2.77;56.41;99700.09;1787305;79;21171;-54
2021/01/27 09:58:30;;;;;;;12.95;7.97;;;;;;;2.71;56.67;99693.95;1746400;78;21549;-55
2021/01/27 10:01:03;;;;;;;15.53;8.48;;;;;;;2.70;56.76;99698.75;1768823;78;21617;-54
2021/01/27 10:03:38;;;;;;;17.32;9.58;;;;;;;2.68;56.50;99690.22;1735338;80;21204;-54
2021/01/27 10:06:34;;;;;;;17.25;9.18;;;;;;;2.68;56.50;99695.42;1785495;79;21884;-53
2021/01/27 10:09:10;;;;;;;17.10;7.58;;;;;;;2.67;56.47;99694.20;1780962;78;21638;-53
2021/01/27 10:11:38;;;;;;;14.35;8.50;;;;;;;2.64;56.58;99690.04;1803884;77;21222;-53
2021/01/27 10:14:11;;;;;;;19.67;8.08;;;;;;;2.63;56.40;99681.86;1798945;77;21167;-53
2021/01/27 10:16:56;;;;;;;16.02;8.38;;;;;;;2.64;56.46;99685.29;1800148;78;21178;-53
2021/01/27 10:19:27;;;;;;;13.90;7.97;;;;;;;2.65;56.85;99691.70;1766320;80;21413;-53
2021/01/27 10:21:58;;;;;;;18.87;9.35;;;;;;;2.66;56.94;99688.66;1753987;78;21191;-53
2021/01/27 10:24:55;;;;;;;15.05;7.72;;;;;;;2.72;56.77;99682.64;1771273;78;21537;-53
2021/01/27 10:27:37;;;;;;;15.90;7.95;;;;;;;2.73;56.99;99680.40;1777117;79;21223;-54
2021/01/27 10:30:19;;;;;;;14.40;8.45;;;;;;;2.77;56.67;99684.95;1777935;79;21197;-52
2021/01/27 10:32:46;;;;;;;16.10;8.70;;;;;;;2.75;56.56;99685.50;1780937;79;22033;-53
2021/01/27 10:35:28;;;;;;;13.10;7.85;;;;;;;2.75;56.35;99678.53;1776995;79;21217;-54
2021/01/27 10:41:09;;;;;;;15.10;7.67;;;;;;;2.69;56.64;99674.16;1793836;77;21176;-53
2021/01/27 10:43:37;;;;;;;16.12;8.18;;;;;;;2.66;56.47;99676.97;1748072;80;21146;-53
2021/01/27 10:46:25;;;;;;;14.18;7.35;;;;;;;2.68;56.02;99678.53;1789477;78;21198;-54
2021/01/27 10:48:52;;;;;;;14.68;7.55;;;;;;;2.67;55.93;99676.02;1789573;78;21169;-53
2021/01/27 10:51:20;;;;;;;12.82;7.45;;;;;;;2.71;55.83;99667.97;1790721;78;21168;-54
2021/01/27 10:53:48;;;;;;;13.48;7.00;;;;;;;2.70;55.81;99662.38;1765501;78;21152;-57
2021/01/27 10:56:17;;;;;;;10.90;5.53;;;;;;;2.72;55.66;99663.16;1790656;78;21180;-59
2021/01/27 10:58:44;;;;;;;12.73;6.72;;;;;;;2.72;55.72;99664.89;1774031;78;21179;-57
2021/01/27 11:01:12;;;;;;;14.03;6.22;;;;;;;2.70;55.81;99659.79;1789810;78;21191;-58
2021/01/27 11:03:40;;;;;;;11.93;6.62;;;;;;;2.66;55.09;99654.41;1775802;78;21205;-57
2021/01/27 11:06:09;;;;;;;12.88;5.95;;;;;;;2.65;55.68;99659.22;1790643;78;21192;-56
2021/01/27 11:08:37;;;;;;;10.95;6.00;;;;;;;2.64;55.91;99649.78;1774871;78;22298;-57
2021/01/27 11:11:05;;;;;;;11.20;7.08;;;;;;;2.65;55.79;99651.43;1775290;78;21717;-57
2021/01/27 11:13:35;;;;;;;12.40;6.22;;;;;;;2.66;55.97;99649.69;1788389;78;21183;-58
2021/01/27 11:16:09;;;;;;;12.60;5.40;;;;;;;2.69;56.21;99647.75;1787620;78;21563;-58
2021/01/27 11:18:38;;;;;;;12.55;6.50;;;;;;;2.69;55.86;99643.84;1771993;78;21500;-58
2021/01/27 11:21:09;;;;;;;10.70;6.58;;;;;;;2.68;55.75;99642.64;1774301;78;21197;-57
2021/01/27 11:23:38;;;;;;;10.90;5.12;;;;;;;2.68;55.57;99640.86;1787360;78;21687;-58
2021/01/27 11:26:07;;;;;;;11.83;6.53;;;;;;;2.68;55.58;99645.23;1773030;78;21595;-54
2021/01/27 11:28:35;;;;;;;10.53;6.08;;;;;;;2.66;55.80;99648.39;1787496;78;21176;-54
2021/01/27 11:31:04;;;;;;;10.65;5.42;;;;;;;2.67;55.79;99642.25;1788637;78;21547;-54
2021/01/27 11:33:31;;;;;;;13.22;6.25;;;;;;;2.66;55.94;99645.33;1792000;78;21124;-55
2021/01/27 11:35:59;;;;;;;10.98;5.67;;;;;;;2.65;56.14;99642.34;1790615;78;21261;-56
2021/01/27 11:38:26;;;;;;;9.25;5.33;;;;;;;2.66;56.02;99638.83;1790998;78;21607;-55
2021/01/27 11:40:53;;;;;;;11.38;4.92;;;;;;;2.65;55.16;99638.92;1793590;77;21576;-53
2021/01/27 11:43:21;;;;;;;11.48;6.03;;;;;;;2.64;54.93;99638.53;1792501;77;21172;-53
2021/01/27 11:45:48;;;;;;;10.60;5.83;;;;;;;2.62;55.40;99634.72;1784334;77;21090;-53
2021/01/27 11:48:17;;;;;;;8.80;5.00;;;;;;;2.61;55.28;99634.37;1790689;77;21286;-55
2021/01/27 11:50:45;;;;;;;11.08;5.50;;;;;;;2.62;55.31;99636.02;1783198;77;21203;-55
2021/01/27 11:53:12;;;;;;;9.83;5.22;;;;;;;2.63;54.79;99636.41;1780933;77;21482;-55
2021/01/27 11:55:40;;;;;;;11.38;5.55;;;;;;;2.60;54.69;99639.18;1790582;77;21185;-55
2021/01/27 11:58:07;;;;;;;11.25;5.67;;;;;;;2.63;54.73;99640.77;1773325;77;21164;-55
2021/01/27 12:00:34;;;;;;;9.43;4.92;;;;;;;2.60;54.83;99634.81;1793176;77;21184;-54
2021/01/27 12:03:03;;;;;;;11.73;6.17;;;;;;;2.62;54.82;99628.23;1792995;77;21184;-55
2021/01/27 12:05:31;;;;;;;13.05;6.55;;;;;;;2.60;55.12;99628.79;1753060;79;21624;-55
2021/01/27 12:08:00;;;;;;;11.83;5.03;;;;;;;2.63;55.33;99635.11;1745501;80;21219;-55
2021/01/27 12:10:28;;;;;;;9.65;5.12;;;;;;;2.65;54.66;99630.66;1745706;80;21192;-54
2021/01/27 12:12:56;;;;;;;9.48;4.10;;;;;;;2.70;54.69;99636.88;1789900;77;21276;-54
2021/01/27 12:15:24;;;;;;;6.42;3.20;;;;;;;2.72;53.83;99631.98;1793840;77;21922;-54
2021/01/27 12:17:51;;;;;;;8.63;4.42;;;;;;;2.70;54.05;99628.62;1781238;77;21201;-55
2021/01/27 12:20:20;;;;;;;8.85;3.90;;;;;;;2.68;53.39;99626.58;1792794;77;21177;-54
2021/01/27 12:22:47;;;;;;;10.32;3.80;;;;;;;2.65;53.82;99626.75;1793160;77;21156;-55
2021/01/27 12:25:14;;;;;;;7.40;3.45;;;;;;;2.63;53.18;99624.72;1741072;79;21958;-55
2021/01/27 12:27:43;;;;;;;5.28;2.95;;;;;;;2.57;53.19;99624.62;1747781;80;21226;-55
2021/01/27 12:30:12;;;;;;;8.25;3.95;;;;;;;2.56;53.15;99624.72;1723244;81;21477;-55
2021/01/27 12:32:41;;;;;;;7.72;2.92;;;;;;;2.52;53.24;99632.30;1727400;81;22510;-55
2021/01/27 12:35:11;;;;;;;8.85;3.55;;;;;;;2.49;53.47;99624.68;1748087;80;21211;-55
2021/01/27 12:37:38;;;;;;;7.78;3.27;;;;;;;2.50;53.32;99626.37;1792913;77;21361;-56
2021/01/27 12:40:11;;;;;;;8.28;4.45;;;;;;;2.51;53.45;99624.16;1790066;77;21593;-55
2021/01/27 12:42:39;;;;;;;12.00;4.78;;;;;;;2.51;53.62;99624.16;1790990;78;21140;-54
2021/01/27 12:45:08;;;;;;;8.30;4.30;;;;;;;2.51;53.84;99625.45;1773003;78;21188;-55
2021/01/27 12:47:36;;;;;;;12.37;4.58;;;;;;;2.51;53.94;99613.30;1765148;78;21116;-55
2021/01/27 12:50:05;;;;;;;7.85;3.50;;;;;;;2.49;53.96;99618.19;1789223;78;21510;-55
2021/01/27 12:52:33;;;;;;;8.05;4.35;;;;;;;2.49;54.04;99617.75;1728506;79;21265;-57
2021/01/27 12:55:01;;;;;;;8.60;4.60;;;;;;;2.45;54.04;99615.41;1755003;79;21174;-55
2021/01/27 12:57:28;;;;;;;9.60;4.33;;;;;;;2.47;54.39;99610.95;1762626;78;22416;-55
2021/01/27 12:59:55;;;;;;;8.28;3.98;;;;;;;2.45;54.34;99606.33;1769522;80;21239;-55